createdAt,value
2018-08-28T00:01:41.589Z,100835.59
2018-08-28T00:04:11.219Z,100847.50
2018-08-28T00:06:40.896Z,100848.88
2018-08-28T00:09:10.558Z,100852.50
2018-08-28T00:11:40.267Z,100851.25
2018-08-28T00:14:09.945Z,100858.80
2018-08-28T00:16:39.603Z,100860.59
2018-08-28T00:19:09.269Z,100865.87
2018-08-28T00:21:39.078Z,100864.99
2018-08-28T00:24:08.698Z,100864.99
2018-08-28T00:26:38.339Z,100870.27
2018-08-28T00:29:08.054Z,100874.23
2018-08-28T00:31:37.662Z,100875.10
2018-08-28T00:34:07.367Z,100883.89
2018-08-28T00:36:37.033Z,100886.94
2018-08-28T00:39:07.268Z,100882.54
2018-08-28T00:41:37.000Z,100892.20
2018-08-28T00:44:06.794Z,100889.56
2018-08-28T00:46:36.408Z,100893.52
2018-08-28T00:49:06.163Z,100906.22
2018-08-28T00:51:35.850Z,100904.03
2018-08-28T00:54:05.660Z,100913.73
2018-08-28T00:56:35.371Z,100913.73
2018-08-28T00:59:05.529Z,100911.98
2018-08-28T01:01:35.158Z,100920.79
2018-08-28T01:04:04.927Z,100923.88
2018-08-28T01:06:34.895Z,100926.52
2018-08-28T01:09:05.594Z,100928.73
2018-08-28T01:11:35.222Z,100933.55
2018-08-28T01:14:04.814Z,100926.52
2018-08-28T01:16:34.407Z,100937.50
2018-08-28T01:19:04.162Z,100932.69
2018-08-28T01:21:33.813Z,100941.05
2018-08-28T01:24:03.806Z,100945.02
2018-08-28T01:26:33.633Z,100948.53
2018-08-28T01:29:03.462Z,100947.23
2018-08-28T01:31:33.208Z,100951.20
2018-08-28T01:34:03.010Z,100949.45
2018-08-28T01:36:32.756Z,100958.30
2018-08-28T01:39:02.702Z,100952.16
2018-08-28T01:41:32.560Z,100957.00
2018-08-28T01:44:02.285Z,100945.16
2018-08-28T01:46:32.105Z,100953.53
2018-08-28T01:49:01.802Z,100957.98
2018-08-28T01:51:31.533Z,100964.16
2018-08-28T01:54:16.049Z,100963.30
2018-08-28T01:56:45.737Z,100972.12
2018-08-28T01:59:15.493Z,100967.75
2018-08-28T02:01:45.422Z,100976.56
2018-08-28T02:04:15.116Z,100975.69
2018-08-28T02:06:44.837Z,100976.14
2018-08-28T02:09:14.561Z,100972.63
2018-08-28T02:11:44.320Z,100976.16
2018-08-28T02:14:14.073Z,100976.17
2018-08-28T02:16:43.798Z,100977.98
2018-08-28T02:19:13.517Z,100971.84
2018-08-28T02:21:43.205Z,100972.73
2018-08-28T02:24:12.920Z,100976.27
2018-08-28T02:26:42.973Z,100975.84
2018-08-28T02:29:19.523Z,100971.89
2018-08-28T02:31:49.235Z,100979.84
2018-08-28T02:34:18.982Z,100977.66
2018-08-28T02:36:48.742Z,100974.60
2018-08-28T02:39:18.446Z,100979.45
2018-08-28T02:41:48.292Z,100980.82
2018-08-28T02:44:18.069Z,100979.53
2018-08-28T02:46:47.786Z,100980.86
2018-08-28T02:49:17.494Z,100985.30
2018-08-28T02:51:47.265Z,100986.63
2018-08-28T02:54:16.940Z,100988.38
2018-08-28T02:56:46.726Z,100988.38
2018-08-28T02:59:16.766Z,100991.44
2018-08-28T03:01:46.489Z,100986.58
2018-08-28T03:04:16.230Z,100986.57
2018-08-28T03:06:46.311Z,100994.46
2018-08-28T03:09:16.052Z,100995.33
2018-08-28T03:11:45.770Z,100991.81
2018-08-28T03:14:15.601Z,100996.65
2018-08-28T03:16:45.321Z,101002.34
2018-08-28T03:19:15.027Z,101004.98
2018-08-28T03:21:44.782Z,101008.05
2018-08-28T03:24:14.723Z,101012.44
2018-08-28T03:26:44.442Z,101019.03
2018-08-28T03:29:14.252Z,101019.46
2018-08-28T03:31:43.845Z,101022.09
2018-08-28T03:34:13.560Z,101029.13
2018-08-28T03:36:43.309Z,101034.83
2018-08-28T03:39:13.014Z,101039.66
2018-08-28T03:41:42.765Z,101042.30
2018-08-28T03:44:12.508Z,101044.05
2018-08-28T03:46:42.242Z,101047.56
2018-08-28T03:49:11.979Z,101051.51
2018-08-28T03:51:41.741Z,101053.70
2018-08-28T03:54:11.486Z,101049.31
2018-08-28T03:56:41.237Z,101054.59
2018-08-28T03:59:11.313Z,101057.23
2018-08-28T04:01:40.991Z,101057.66
2018-08-28T04:04:11.326Z,101057.23
2018-08-28T04:06:41.203Z,101055.91
2018-08-28T04:09:11.369Z,101055.92
2018-08-28T04:11:41.136Z,101055.92
2018-08-28T04:14:10.912Z,101061.19
2018-08-28T04:16:40.620Z,101058.99
2018-08-28T04:19:10.370Z,101063.81
2018-08-28T04:21:40.165Z,101068.64
2018-08-28T04:24:09.858Z,101075.67
2018-08-28T04:26:39.613Z,101073.04
2018-08-28T04:29:09.380Z,101079.19
2018-08-28T04:31:39.074Z,101076.55
2018-08-28T04:34:08.825Z,101082.25
2018-08-28T04:36:38.579Z,101080.06
2018-08-28T04:39:09.020Z,101086.20
2018-08-28T04:41:38.729Z,101082.26
2018-08-28T04:44:08.464Z,101088.41
2018-08-28T04:46:38.625Z,101098.50
2018-08-28T04:49:08.320Z,101096.30
2018-08-28T04:51:38.137Z,101091.91
2018-08-28T04:54:07.852Z,101094.98
2018-08-28T04:56:37.566Z,101092.34
2018-08-28T04:59:07.273Z,101097.56
2018-08-28T05:01:36.986Z,101099.31
2018-08-28T05:04:07.406Z,101098.87
2018-08-28T05:06:37.150Z,101107.20
2018-08-28T05:09:08.153Z,101107.19
2018-08-28T05:11:37.864Z,101114.61
2018-08-28T05:14:07.744Z,101116.36
2018-08-28T05:16:37.423Z,101116.35
2018-08-28T05:19:07.358Z,101116.74
2018-08-28T05:21:37.196Z,101114.09
2018-08-28T05:24:06.910Z,101113.20
2018-08-28T05:26:36.590Z,101120.20
2018-08-28T05:29:06.461Z,101117.53
2018-08-28T05:31:36.168Z,101122.75
2018-08-28T05:34:06.285Z,101126.23
2018-08-28T05:36:36.378Z,101133.62
2018-08-28T05:39:07.653Z,101127.44
2018-08-28T05:41:37.501Z,101126.93
2018-08-28T05:44:07.229Z,101136.56
2018-08-28T05:46:36.990Z,101138.22
2018-08-28T05:49:06.816Z,101130.20
2018-08-28T05:51:36.468Z,101133.07
2018-08-28T05:54:06.165Z,101139.65
2018-08-28T05:56:35.985Z,101134.98
2018-08-28T05:59:05.726Z,101133.92
2018-08-28T06:01:35.504Z,101134.47
2018-08-28T06:04:05.257Z,101134.00
2018-08-28T06:06:34.981Z,101138.66
2018-08-28T06:09:05.577Z,101131.08
2018-08-28T06:11:35.357Z,101140.89
2018-08-28T06:14:05.137Z,101134.16
2018-08-28T06:16:34.862Z,101138.06
2018-08-28T06:19:04.701Z,101139.48
2018-08-28T06:21:34.413Z,101141.31
2018-08-28T06:24:04.155Z,101144.16
2018-08-28T06:26:33.995Z,101150.44
2018-08-28T06:29:03.629Z,101150.47
2018-08-28T06:31:33.365Z,101147.28
2018-08-28T06:34:03.203Z,101142.45
2018-08-28T06:36:32.761Z,101145.11
2018-08-28T06:39:02.467Z,101148.57
2018-08-28T06:41:32.195Z,101150.15
2018-08-28T06:44:01.992Z,101151.21
2018-08-28T06:46:31.658Z,101156.94
2018-08-28T06:49:01.694Z,101160.48
2018-08-28T06:51:31.473Z,101156.52
2018-08-28T06:54:01.201Z,101155.00
2018-08-28T06:56:30.910Z,101160.39
2018-08-28T06:59:00.667Z,101158.95
2018-08-28T07:01:30.452Z,101161.53
2018-08-28T07:04:00.475Z,101167.44
2018-08-28T07:06:30.102Z,101160.06
2018-08-28T07:08:59.857Z,101159.97
2018-08-28T07:11:29.536Z,101168.13
2018-08-28T07:13:59.315Z,101170.78
2018-08-28T07:16:29.054Z,101171.64
2018-08-28T07:18:58.885Z,101176.41
2018-08-28T07:21:28.570Z,101180.11
2018-08-28T07:23:58.588Z,101181.08
2018-08-28T07:26:28.315Z,101173.47
2018-08-28T07:28:58.157Z,101182.89
2018-08-28T07:31:27.968Z,101176.09
2018-08-28T07:33:57.662Z,101181.98
2018-08-28T07:36:27.401Z,101183.97
2018-08-28T07:38:57.338Z,101182.95
2018-08-28T07:41:27.098Z,101189.95
2018-08-28T07:43:56.797Z,101190.05
2018-08-28T07:46:26.533Z,101195.55
2018-08-28T07:48:56.235Z,101197.65
2018-08-28T07:51:26.017Z,101189.37
2018-08-28T07:53:55.823Z,101194.38
2018-08-28T07:56:25.490Z,101196.59
2018-08-28T07:58:55.150Z,101199.79
2018-08-28T08:01:25.022Z,101204.50
2018-08-28T08:03:54.637Z,101203.30
2018-08-28T08:06:24.340Z,101202.24
2018-08-28T08:08:54.119Z,101200.80
2018-08-28T08:11:23.826Z,101204.77
2018-08-28T08:13:53.574Z,101203.67
2018-08-28T08:16:23.301Z,101201.34
2018-08-28T08:18:53.015Z,101212.88
2018-08-28T08:21:22.824Z,101213.34
2018-08-28T08:23:52.528Z,101216.09
2018-08-28T08:26:22.257Z,101217.89
2018-08-28T08:28:51.976Z,101210.67
2018-08-28T08:31:21.877Z,101222.21
2018-08-28T08:33:51.784Z,101228.77
2018-08-28T08:36:21.562Z,101226.22
2018-08-28T08:38:51.297Z,101219.99
2018-08-28T08:41:21.242Z,101220.31
2018-08-28T08:43:50.981Z,101224.38
2018-08-28T08:46:20.740Z,101225.84
2018-08-28T08:48:50.460Z,101225.19
2018-08-28T08:51:20.166Z,101227.52
2018-08-28T08:53:49.878Z,101224.44
2018-08-28T08:56:19.587Z,101231.80
2018-08-28T08:58:49.295Z,101228.02
2018-08-28T09:01:18.997Z,101231.95
2018-08-28T09:03:48.811Z,101225.41
2018-08-28T09:06:18.532Z,101229.87
2018-08-28T09:08:48.292Z,101221.25
2018-08-28T09:11:18.081Z,101226.91
2018-08-28T09:13:47.786Z,101235.33
2018-08-28T09:16:17.469Z,101232.72
2018-08-28T09:18:47.317Z,101231.27
2018-08-28T09:21:16.989Z,101235.83
2018-08-28T09:23:46.779Z,101239.26
2018-08-28T09:26:16.766Z,101234.63
2018-08-28T09:28:46.437Z,101234.23
2018-08-28T09:31:16.193Z,101230.81
2018-08-28T09:33:45.891Z,101222.36
2018-08-28T09:36:15.586Z,101229.45
2018-08-28T09:38:45.316Z,101231.36
2018-08-28T09:41:15.049Z,101227.67
2018-08-28T09:43:44.784Z,101229.13
2018-08-28T09:46:14.526Z,101234.17
2018-08-28T09:48:44.222Z,101227.45
2018-08-28T09:51:13.925Z,101220.19
2018-08-28T09:53:43.614Z,101222.66
2018-08-28T09:56:13.305Z,101229.17
2018-08-28T09:58:43.041Z,101223.22
2018-08-28T10:01:17.999Z,101225.92
2018-08-28T10:03:47.703Z,101225.30
2018-08-28T10:06:17.417Z,101222.97
2018-08-28T10:08:47.118Z,101222.34
2018-08-28T10:11:16.787Z,101225.80
2018-08-28T10:13:46.464Z,101224.06
2018-08-28T10:16:16.186Z,101229.33
2018-08-28T10:18:45.902Z,101221.60
2018-08-28T10:21:15.614Z,101227.02
2018-08-28T10:23:45.365Z,101227.48
2018-08-28T10:26:15.021Z,101236.19
2018-08-28T10:28:44.711Z,101234.02
2018-08-28T10:31:14.481Z,101231.44
2018-08-28T10:33:44.153Z,101226.99
2018-08-28T10:36:13.858Z,101227.83
2018-08-28T10:38:43.746Z,101229.91
2018-08-28T10:41:13.457Z,101230.22
2018-08-28T10:43:43.158Z,101238.33
2018-08-28T10:46:12.950Z,101251.14
2018-08-28T10:48:42.592Z,101242.16
2018-08-28T10:51:12.265Z,101244.95
2018-08-28T10:53:41.951Z,101247.13
2018-08-28T10:56:11.660Z,101244.75
2018-08-28T10:58:41.453Z,101246.00
2018-08-28T11:01:11.113Z,101248.13
2018-08-28T11:03:40.834Z,101247.35
2018-08-28T11:06:10.546Z,101244.30
2018-08-28T11:08:40.315Z,101243.44
2018-08-28T11:11:10.030Z,101241.86
2018-08-28T11:13:39.743Z,101237.91
2018-08-28T11:16:09.562Z,101248.15
2018-08-28T11:18:39.235Z,101243.84
2018-08-28T11:21:09.246Z,101249.02
2018-08-28T11:23:39.233Z,101253.29
2018-08-28T11:26:08.945Z,101256.22
2018-08-28T11:28:38.793Z,101263.75
2018-08-28T11:31:08.693Z,101260.05
2018-08-28T11:33:38.492Z,101261.48
2018-08-28T11:36:08.357Z,101260.75
2018-08-28T11:38:38.272Z,101259.90
2018-08-28T11:41:08.059Z,101255.27
2018-08-28T11:43:37.870Z,101255.62
2018-08-28T11:46:08.082Z,101256.95
2018-08-28T11:48:37.875Z,101266.98
2018-08-28T11:51:07.722Z,101270.00
2018-08-28T11:53:37.497Z,101267.77
2018-08-28T11:56:07.280Z,101266.27
2018-08-28T11:58:37.160Z,101270.39
2018-08-28T12:01:07.085Z,101269.06
2018-08-28T12:03:36.829Z,101268.66
2018-08-28T12:06:06.638Z,101271.01
2018-08-28T12:08:36.355Z,101265.38
2018-08-28T12:11:06.157Z,101265.67
2018-08-28T12:13:35.890Z,101264.52
2018-08-28T12:16:05.762Z,101269.22
2018-08-28T12:18:35.446Z,101264.37
2018-08-28T12:21:05.427Z,101264.71
2018-08-28T12:23:35.398Z,101266.58
2018-08-28T12:26:05.129Z,101275.22
2018-08-28T12:28:34.953Z,101274.02
2018-08-28T12:31:04.696Z,101265.70
2018-08-28T12:33:34.374Z,101267.45
2018-08-28T12:36:04.249Z,101269.61
2018-08-28T12:38:34.025Z,101266.94
2018-08-28T12:41:03.709Z,101263.49
2018-08-28T12:43:33.521Z,101264.27
2018-08-28T12:46:03.255Z,101262.09
2018-08-28T12:48:32.933Z,101264.53
2018-08-28T12:51:09.208Z,101264.06
2018-08-28T12:53:38.977Z,101264.13
2018-08-28T12:56:08.798Z,101263.66
2018-08-28T12:58:38.500Z,101257.30
2018-08-28T13:01:08.197Z,101258.10
2018-08-28T13:03:37.942Z,101261.05
2018-08-28T13:06:07.841Z,101259.14
2018-08-28T13:08:37.558Z,101256.63
2018-08-28T13:11:07.688Z,101253.56
2018-08-28T13:13:37.449Z,101260.44
2018-08-28T13:16:07.194Z,101258.88
2018-08-28T13:18:36.975Z,101257.20
2018-08-28T13:21:06.928Z,101259.41
2018-08-28T13:23:36.646Z,101260.16
2018-08-28T13:26:06.932Z,101257.76
2018-08-28T13:28:36.657Z,101258.77
2018-08-28T13:31:06.438Z,101257.64
2018-08-28T13:33:36.169Z,101251.46
2018-08-28T13:36:05.887Z,101252.06
2018-08-28T13:38:35.567Z,101245.48
2018-08-28T13:41:05.342Z,101245.61
2018-08-28T13:43:35.254Z,101247.72
2018-08-28T13:46:04.993Z,101247.73
2018-08-28T13:48:34.786Z,101249.63
2018-08-28T13:51:04.515Z,101250.92
2018-08-28T13:53:34.244Z,101250.30
2018-08-28T13:56:03.906Z,101250.02
2018-08-28T13:58:33.611Z,101248.69
2018-08-28T14:01:03.318Z,101247.58
2018-08-28T14:03:33.187Z,101253.12
2018-08-28T14:06:02.901Z,101252.42
2018-08-28T14:08:32.601Z,101251.61
2018-08-28T14:11:02.333Z,101250.42
2018-08-28T14:13:32.308Z,101251.88
2018-08-28T14:16:01.860Z,101249.78
2018-08-28T14:18:31.554Z,101252.45
2018-08-28T14:21:01.277Z,101253.16
2018-08-28T14:23:31.189Z,101256.31
2018-08-28T14:26:00.940Z,101255.46
2018-08-28T14:28:30.680Z,101254.98
2018-08-28T14:31:00.433Z,101259.05
2018-08-28T14:33:30.184Z,101254.57
2018-08-28T14:35:59.937Z,101257.59
2018-08-28T14:38:29.698Z,101263.98
2018-08-28T14:40:59.453Z,101260.96
2018-08-28T14:43:29.402Z,101256.72
2018-08-28T14:45:59.076Z,101258.70
2018-08-28T14:48:28.771Z,101255.25
2018-08-28T14:50:58.605Z,101250.13
2018-08-28T14:53:28.265Z,101248.56
2018-08-28T14:55:57.978Z,101258.17
2018-08-28T14:58:27.667Z,101250.73
2018-08-28T15:00:57.325Z,101252.89
2018-08-28T15:03:27.023Z,101252.54
2018-08-28T15:05:56.899Z,101250.27
2018-08-28T15:08:26.542Z,101245.97
2018-08-28T15:10:56.273Z,101246.70
2018-08-28T15:13:26.030Z,101243.32
2018-08-28T15:15:55.711Z,101246.11
2018-08-28T15:18:25.457Z,101240.19
2018-08-28T15:20:55.170Z,101237.41
2018-08-28T15:23:24.901Z,101235.66
2018-08-28T15:25:54.618Z,101237.16
2018-08-28T15:28:24.337Z,101238.20
2018-08-28T15:30:54.111Z,101234.30
2018-08-28T15:33:23.858Z,101238.48
2018-08-28T15:35:53.593Z,101241.57
2018-08-28T15:38:23.307Z,101240.16
2018-08-28T15:40:53.057Z,101243.69
2018-08-28T15:43:22.989Z,101241.88
2018-08-28T15:45:52.745Z,101245.26
2018-08-28T15:48:22.477Z,101245.59
2018-08-28T15:50:52.224Z,101248.83
2018-08-28T15:53:21.913Z,101246.25
2018-08-28T15:55:51.651Z,101246.81
2018-08-28T15:58:21.486Z,101250.53
2018-08-28T16:00:51.249Z,101252.98
2018-08-28T16:03:20.984Z,101254.17
2018-08-28T16:05:50.867Z,101258.96
2018-08-28T16:08:20.541Z,101257.94
2018-08-28T16:10:50.235Z,101257.71
2018-08-28T16:13:19.955Z,101262.03
2018-08-28T16:15:49.722Z,101257.88
2018-08-28T16:18:19.416Z,101260.71
2018-08-28T16:20:49.157Z,101259.09
2018-08-28T16:23:24.009Z,101264.09
2018-08-28T16:25:53.965Z,101255.86
2018-08-28T16:28:23.755Z,101256.98
2018-08-28T16:30:53.639Z,101261.55
2018-08-28T16:33:25.260Z,101252.06
2018-08-28T16:35:55.060Z,101256.23
2018-08-28T16:38:24.759Z,101249.81
2018-08-28T16:40:54.517Z,101252.64
2018-08-28T16:43:24.221Z,101251.50
2018-08-28T16:45:53.970Z,101254.25
2018-08-28T16:48:23.757Z,101245.43
2018-08-28T16:50:53.546Z,101252.08
2018-08-28T16:53:23.302Z,101254.78
2018-08-28T16:55:53.183Z,101252.62
2018-08-28T16:58:22.844Z,101251.83
2018-08-28T17:00:52.578Z,101254.11
2018-08-28T17:03:22.476Z,101255.97
2018-08-28T17:05:52.183Z,101249.84
2018-08-28T17:08:21.987Z,101251.25
2018-08-28T17:10:51.825Z,101256.12
2018-08-28T17:13:21.584Z,101254.37
2018-08-28T17:15:51.295Z,101246.09
2018-08-28T17:18:21.062Z,101253.42
2018-08-28T17:20:50.784Z,101248.89
2018-08-28T17:23:20.510Z,101254.11
2018-08-28T17:25:50.239Z,101245.23
2018-08-28T17:28:19.970Z,101251.41
2018-08-28T17:30:49.831Z,101246.98
2018-08-28T17:33:19.617Z,101242.58
2018-08-28T17:35:49.290Z,101242.95
2018-08-28T17:38:19.052Z,101253.45
2018-08-28T17:40:48.963Z,101256.42
2018-08-28T17:43:18.692Z,101244.80
2018-08-28T17:45:48.442Z,101248.66
2018-08-28T17:48:18.197Z,101254.22
2018-08-28T17:50:47.891Z,101259.78
2018-08-28T17:53:17.671Z,101258.67
2018-08-28T17:55:47.430Z,101262.84
2018-08-28T17:58:17.097Z,101263.87
2018-08-28T18:00:46.877Z,101267.16
2018-08-28T18:03:16.751Z,101265.59
2018-08-28T18:05:46.426Z,101269.22
2018-08-28T18:08:16.204Z,101272.89
2018-08-28T18:10:45.957Z,101276.56
2018-08-28T18:13:15.667Z,101274.92
2018-08-28T18:15:45.398Z,101277.24
2018-08-28T18:18:15.150Z,101276.01
2018-08-28T18:20:44.922Z,101274.80
2018-08-28T18:23:14.674Z,101277.50
2018-08-28T18:25:44.598Z,101274.88
2018-08-28T18:28:14.330Z,101279.31
2018-08-28T18:30:44.114Z,101280.70
2018-08-28T18:33:13.965Z,101281.17
2018-08-28T18:35:43.690Z,101280.80
2018-08-28T18:38:13.415Z,101277.81
2018-08-28T18:40:43.263Z,101285.78
2018-08-28T18:43:13.070Z,101287.61
2018-08-28T18:45:43.332Z,101293.81
2018-08-28T18:48:13.108Z,101296.04
2018-08-28T18:50:42.812Z,101289.90
2018-08-28T18:53:12.591Z,101288.16
2018-08-28T18:55:42.517Z,101282.93
2018-08-28T18:58:12.223Z,101289.58
2018-08-28T19:00:41.979Z,101288.73
2018-08-28T19:03:11.778Z,101279.58
2018-08-28T19:05:41.456Z,101286.20
2018-08-28T19:08:11.189Z,101290.63
2018-08-28T19:10:40.911Z,101284.48
2018-08-28T19:13:10.653Z,101284.05
2018-08-28T19:15:40.383Z,101288.02
2018-08-28T19:18:10.116Z,101286.75
2018-08-28T19:20:39.882Z,101287.66
2018-08-28T19:23:09.596Z,101281.98
2018-08-28T19:25:39.379Z,101291.30
2018-08-28T19:28:09.125Z,101289.16
2018-08-28T19:30:38.843Z,101288.79
2018-08-28T19:33:08.623Z,101290.15
2018-08-28T19:35:38.369Z,101282.27
2018-08-28T19:38:08.572Z,101288.45
2018-08-28T19:40:38.462Z,101289.34
2018-08-28T19:43:08.198Z,101289.80
2018-08-28T19:45:37.983Z,101291.11
2018-08-28T19:48:07.742Z,101286.27
2018-08-28T19:50:37.481Z,101275.72
2018-08-28T19:53:07.251Z,101275.27
2018-08-28T19:55:37.314Z,101276.59
2018-08-28T19:58:07.069Z,101273.08
2018-08-28T20:00:36.769Z,101277.08
2018-08-28T20:03:06.630Z,101279.73
2018-08-28T20:05:36.355Z,101281.06
2018-08-28T20:08:06.335Z,101277.56
2018-08-28T20:10:36.099Z,101282.84
2018-08-28T20:13:05.957Z,101276.74
2018-08-28T20:15:35.686Z,101281.59
2018-08-28T20:18:05.496Z,101278.09
2018-08-28T20:20:35.232Z,101277.66
2018-08-28T20:23:05.173Z,101277.23
2018-08-28T20:25:34.856Z,101289.14
2018-08-28T20:28:04.610Z,101281.67
2018-08-28T20:30:34.326Z,101283.89
2018-08-28T20:33:04.022Z,101277.30
2018-08-28T20:35:33.753Z,101277.75
2018-08-28T20:38:03.471Z,101283.50
2018-08-28T20:40:33.199Z,101274.72
2018-08-28T20:43:02.922Z,101273.84
2018-08-28T20:45:32.757Z,101277.81
2018-08-28T20:48:02.584Z,101274.30
2018-08-28T20:50:32.313Z,101270.39
2018-08-28T20:53:02.095Z,101276.99
2018-08-28T20:55:31.932Z,101270.41
2018-08-28T20:58:01.729Z,101270.41
2018-08-28T21:00:35.577Z,101265.58
2018-08-28T21:03:06.351Z,101270.45
2018-08-28T21:05:36.041Z,101269.53
2018-08-28T21:08:05.862Z,101265.58
2018-08-28T21:10:35.583Z,101267.81
2018-08-28T21:13:05.503Z,101265.62
2018-08-28T21:15:35.087Z,101265.62
2018-08-28T21:18:04.829Z,101268.27
2018-08-28T21:20:34.610Z,101265.20
2018-08-28T21:23:04.443Z,101264.33
2018-08-28T21:25:34.105Z,101262.17
2018-08-28T21:28:03.845Z,101267.00
2018-08-28T21:30:33.526Z,101271.40
2018-08-28T21:33:03.299Z,101269.64
2018-08-28T21:35:33.067Z,101272.28
2018-08-28T21:38:02.739Z,101273.16
2018-08-28T21:40:32.465Z,101278.87
2018-08-28T21:43:02.263Z,101277.11
2018-08-28T21:45:31.992Z,101285.45
2018-08-28T21:48:01.689Z,101279.34
2018-08-28T21:50:31.495Z,101283.29
2018-08-28T21:53:01.257Z,101278.02
2018-08-28T21:55:31.114Z,101283.29
2018-08-28T21:58:00.908Z,101283.29
2018-08-28T22:00:30.637Z,101276.70
2018-08-28T22:03:00.433Z,101272.31
2018-08-28T22:05:30.152Z,101272.78
2018-08-28T22:08:00.091Z,101271.02
2018-08-28T22:10:30.920Z,101273.66
2018-08-28T22:13:00.765Z,101280.23
2018-08-28T22:15:30.441Z,101278.91
2018-08-28T22:18:00.157Z,101278.91
2018-08-28T22:20:29.818Z,101281.58
2018-08-28T22:22:59.495Z,101277.63
2018-08-28T22:25:29.091Z,101274.98
2018-08-28T22:27:58.706Z,101276.74
2018-08-28T22:30:28.387Z,101278.05
2018-08-28T22:32:57.996Z,101287.70
2018-08-28T22:35:27.605Z,101282.45
2018-08-28T22:37:57.199Z,101288.16
2018-08-28T22:40:26.816Z,101285.95
2018-08-28T22:42:56.471Z,101288.15
2018-08-28T22:45:26.063Z,101288.59
2018-08-28T22:47:55.691Z,101282.00
2018-08-28T22:50:25.295Z,101285.07
2018-08-28T22:52:54.859Z,101279.36
2018-08-28T22:55:24.472Z,101278.95
2018-08-28T22:57:54.095Z,101283.77
2018-08-28T23:00:24.343Z,101273.23
2018-08-28T23:02:55.459Z,101270.59
2018-08-28T23:05:25.098Z,101264.00
2018-08-28T23:07:54.698Z,101270.61
2018-08-28T23:10:24.380Z,101272.36
2018-08-28T23:12:54.083Z,101272.80
2018-08-28T23:15:23.690Z,101271.88
2018-08-28T23:17:53.342Z,101270.55
2018-08-28T23:20:23.046Z,101272.73
2018-08-28T23:22:52.686Z,101267.91
2018-08-28T23:25:22.419Z,101272.28
2018-08-28T23:27:52.054Z,101262.22
2018-08-28T23:30:21.654Z,101264.84
2018-08-28T23:32:51.263Z,101267.89
2018-08-28T23:35:20.866Z,101264.81
2018-08-28T23:37:50.467Z,101255.62
2018-08-28T23:40:20.084Z,101262.62
2018-08-28T23:42:49.675Z,101259.53
2018-08-28T23:45:19.301Z,101257.34
2018-08-28T23:47:49.229Z,101258.20
2018-08-28T23:50:18.920Z,101260.84
2018-08-28T23:52:48.536Z,101257.33
2018-08-28T23:55:18.172Z,101256.43
2018-08-28T23:57:47.799Z,101255.12
